Time;durP1;ratioP1;P1;durP2;ratioP2;P2;SDS_P1;SDS_P2;PMS_P1;PMS_P2;Temp;Humidity;BMP_temperature;BMP_pressure;BME280_temperature;BME280_humidity;BME280_pressure;Samples;Min_cycle;Max_cycle;Signal;HPM_P1;HPM_P2
2022/06/04 00:01:34;;;;;;;;;;;;;;;14.91;62.58;101642.38;5070969;28;20390;-76
2022/06/04 00:04:00;;;;;;;;;;;;;;;14.88;62.75;101643.47;5070694;28;20009;-76
2022/06/04 00:06:25;;;;;;;;;;;;;;;14.87;62.69;101646.28;5054123;28;20041;-76
2022/06/04 00:08:50;;;;;;;;;;;;;;;14.89;62.92;101647.03;5059017;28;19920;-75
2022/06/04 00:16:50;;;;;;;;;;;;;;;14.88;62.78;101634.50;5030754;28;20247;-76
2022/06/04 00:19:16;;;;;;;;;;;;;;;14.86;62.41;101645.41;5065751;28;19913;-76
2022/06/04 00:21:41;;;;;;;;;;;;;;;14.84;62.56;101636.56;5063848;28;19912;-76
2022/06/04 00:24:06;;;;;;;;;;;;;;;14.82;62.82;101638.53;5064779;28;19916;-76
2022/06/04 00:26:32;;;;;;;;;;;;;;;14.78;62.63;101637.06;5086138;28;19948;-76
2022/06/04 00:28:57;;;;;;;;;;;;;;;14.77;62.79;101652.41;5075350;28;19912;-76
2022/06/04 00:31:22;;;;;;;;;;;;;;;14.75;62.68;101651.69;5063637;28;19916;-76
2022/06/04 00:33:47;;;;;;;;;;;;;;;14.73;62.93;101653.66;5054239;28;19958;-76
2022/06/04 00:36:13;;;;;;;;;;;;;;;14.73;63.04;101658.19;5083600;28;19928;-76
2022/06/04 00:38:38;;;;;;;;;;;;;;;14.73;63.00;101659.06;5056340;28;20031;-76
2022/06/04 00:41:06;;;;;;;;;;;;;;;14.75;62.81;101648.13;5060285;28;19919;-76
2022/06/04 00:43:50;;;;;;;;;;;;;;;14.76;62.12;101642.59;5055694;28;20510;-76
2022/06/04 00:46:33;;;;;;;;;;;;;;;14.76;62.74;101636.28;5054698;28;20334;-76
2022/06/04 00:48:58;;;;;;;;;;;;;;;14.72;62.76;101634.84;5056299;28;19921;-76
2022/06/04 00:51:25;;;;;;;;;;;;;;;14.68;62.67;101647.72;5067832;28;20363;-76
2022/06/04 00:53:50;;;;;;;;;;;;;;;14.66;63.10;101660.53;5072245;28;19916;-76
2022/06/04 00:56:18;;;;;;;;;;;;;;;14.62;62.62;101659.88;5061685;28;20379;-76
2022/06/04 00:58:46;;;;;;;;;;;;;;;14.61;62.50;101662.69;5072950;28;19912;-77
2022/06/04 01:01:12;;;;;;;;;;;;;;;14.59;62.95;101670.06;5071067;28;20288;-76
2022/06/04 01:03:55;;;;;;;;;;;;;;;14.59;62.98;101670.06;5056577;28;19912;-76
2022/06/04 01:06:23;;;;;;;;;;;;;;;14.58;62.72;101680.00;5071174;28;19912;-76
2022/06/04 01:08:54;;;;;;;;;;;;;;;14.58;62.21;101695.38;5071161;28;19951;-75
2022/06/04 01:11:32;;;;;;;;;;;;;;;14.60;61.78;101694.28;5058168;28;20359;-75
2022/06/04 01:14:07;;;;;;;;;;;;;;;14.59;62.30;101691.69;5063655;28;19912;-75
2022/06/04 01:16:55;;;;;;;;;;;;;;;14.57;62.50;101689.13;5077436;28;20042;-76
2022/06/04 01:19:32;;;;;;;;;;;;;;;14.55;62.53;101691.06;5069666;28;20053;-76
2022/06/04 01:22:26;;;;;;;;;;;;;;;14.51;62.13;101687.75;5060206;28;20288;-76
2022/06/04 01:24:52;;;;;;;;;;;;;;;14.51;61.91;101690.44;5069310;28;20324;-76
2022/06/04 01:27:17;;;;;;;;;;;;;;;14.51;62.21;101689.59;5054423;28;19912;-76
2022/06/04 01:29:51;;;;;;;;;;;;;;;14.49;62.03;101696.94;5068907;28;20007;-76
2022/06/04 01:32:30;;;;;;;;;;;;;;;14.48;61.78;101700.63;5064933;28;19920;-76
2022/06/04 01:34:55;;;;;;;;;;;;;;;14.48;61.58;101695.22;5063193;28;20397;-76
2022/06/04 01:37:31;;;;;;;;;;;;;;;14.49;62.20;101700.53;5056033;28;20019;-76
2022/06/04 01:42:46;;;;;;;;;;;;;;;14.44;62.01;101689.19;5065163;28;19925;-76
2022/06/04 01:45:13;;;;;;;;;;;;;;;14.43;62.12;101702.84;5068019;28;20324;-76
2022/06/04 01:47:39;;;;;;;;;;;;;;;14.42;61.67;101706.50;5057755;28;19912;-76
2022/06/04 01:50:09;;;;;;;;;;;;;;;14.41;62.19;101715.63;5058637;28;20390;-76
2022/06/04 01:52:39;;;;;;;;;;;;;;;14.38;62.30;101718.53;5055749;28;19912;-76
2022/06/04 01:55:22;;;;;;;;;;;;;;;14.34;62.02;101729.59;5058205;28;19912;-76
2022/06/04 01:57:55;;;;;;;;;;;;;;;14.32;62.63;101739.66;5064784;28;20376;-76
2022/06/04 02:00:23;;;;;;;;;;;;;;;14.29;62.55;101729.09;5070029;28;19981;-76
2022/06/04 02:03:10;;;;;;;;;;;;;;;14.27;61.98;101720.19;5056644;28;20008;-76
2022/06/04 02:05:38;;;;;;;;;;;;;;;14.29;62.14;101729.09;5062817;28;19980;-76
2022/06/04 02:08:05;;;;;;;;;;;;;;;14.29;62.58;101717.38;5059706;28;19916;-75
2022/06/04 02:10:40;;;;;;;;;;;;;;;14.26;62.28;101723.91;5070942;28;19916;-76
2022/06/04 02:13:08;;;;;;;;;;;;;;;14.24;62.15;101728.53;5058244;28;19920;-76
2022/06/04 02:15:36;;;;;;;;;;;;;;;14.24;62.27;101725.84;5049859;28;19920;-76
2022/06/04 02:18:02;;;;;;;;;;;;;;;14.23;62.30;101731.38;5055343;28;20314;-76
2022/06/04 02:20:27;;;;;;;;;;;;;;;14.22;62.22;101730.53;5068570;28;19935;-76
2022/06/04 02:22:53;;;;;;;;;;;;;;;14.20;62.70;101729.75;5058411;28;19916;-76
2022/06/04 02:25:19;;;;;;;;;;;;;;;14.18;62.52;101733.56;5054553;28;20020;-76
2022/06/04 02:27:44;;;;;;;;;;;;;;;14.13;62.54;101720.41;5062487;28;19920;-76
2022/06/04 02:30:12;;;;;;;;;;;;;;;14.12;62.86;101729.47;5052378;28;19924;-76
2022/06/04 02:32:47;;;;;;;;;;;;;;;14.09;62.51;101722.44;5065079;28;20257;-76
2022/06/04 02:35:32;;;;;;;;;;;;;;;14.06;62.95;101722.69;5068376;28;19916;-76
2022/06/04 02:38:04;;;;;;;;;;;;;;;14.04;62.62;101712.94;5054229;28;19913;-76
2022/06/04 02:40:33;;;;;;;;;;;;;;;14.03;62.48;101705.84;5052167;28;20394;-76
2022/06/04 02:43:14;;;;;;;;;;;;;;;14.02;63.03;101706.81;5067890;28;20010;-76
2022/06/04 02:45:42;;;;;;;;;;;;;;;13.99;62.71;101700.63;5071125;28;19913;-76
2022/06/04 02:48:22;;;;;;;;;;;;;;;13.97;63.04;101691.78;5056118;28;19919;-76
2022/06/04 02:50:53;;;;;;;;;;;;;;;13.92;63.08;101683.16;5065583;28;19916;-76
2022/06/04 02:53:19;;;;;;;;;;;;;;;13.91;63.29;101673.34;5057867;28;19913;-76
2022/06/04 02:55:50;;;;;;;;;;;;;;;13.89;63.00;101669.88;5061226;28;20389;-76
2022/06/04 02:58:17;;;;;;;;;;;;;;;13.87;63.06;101665.59;5061234;28;20330;-76
2022/06/04 03:00:44;;;;;;;;;;;;;;;13.89;62.49;101672.56;5071162;28;19920;-76
2022/06/04 03:03:10;;;;;;;;;;;;;;;13.91;63.07;101658.94;5067477;28;19995;-76
2022/06/04 03:05:36;;;;;;;;;;;;;;;13.91;62.61;101654.44;5059800;28;20286;-76
2022/06/04 03:08:03;;;;;;;;;;;;;;;13.92;62.96;101656.13;5073286;28;20003;-76
2022/06/04 03:10:30;;;;;;;;;;;;;;;13.89;63.17;101656.34;5058473;28;19919;-76
2022/06/04 03:12:56;;;;;;;;;;;;;;;13.87;63.29;101652.91;5072141;28;19951;-76
2022/06/04 03:15:21;;;;;;;;;;;;;;;13.86;63.31;101653.03;5059369;28;19947;-76
2022/06/04 03:17:47;;;;;;;;;;;;;;;13.86;63.37;101655.75;5058337;28;19913;-76
2022/06/04 03:20:14;;;;;;;;;;;;;;;13.83;63.50;101658.69;5057147;28;19959;-76
2022/06/04 03:22:40;;;;;;;;;;;;;;;13.83;63.12;101662.22;5069730;28;20317;-76
2022/06/04 03:25:05;;;;;;;;;;;;;;;13.83;63.00;101659.53;5061217;28;20007;-76
2022/06/04 03:27:30;;;;;;;;;;;;;;;13.83;63.23;101656.81;5069514;28;19920;-76
2022/06/04 03:29:56;;;;;;;;;;;;;;;13.80;63.48;101654.34;5063691;28;19912;-76
2022/06/04 03:32:21;;;;;;;;;;;;;;;13.76;63.69;101652.84;5066582;28;20415;-76
2022/06/04 03:34:46;;;;;;;;;;;;;;;13.74;63.76;101644.84;5072731;28;19912;-76
2022/06/04 03:37:11;;;;;;;;;;;;;;;13.73;64.16;101650.38;5070253;28;19924;-76
2022/06/04 03:39:37;;;;;;;;;;;;;;;13.75;64.00;101659.25;5068071;28;19916;-76
2022/06/04 03:42:02;;;;;;;;;;;;;;;13.72;64.26;101654.03;5066175;28;19920;-76
2022/06/04 03:44:28;;;;;;;;;;;;;;;13.69;64.80;101662.38;5063351;28;20011;-76
2022/06/04 03:46:53;;;;;;;;;;;;;;;13.67;64.18;101672.44;5084227;28;19916;-76
2022/06/04 03:49:18;;;;;;;;;;;;;;;13.65;64.44;101669.88;5063010;28;19920;-76
2022/06/04 03:51:43;;;;;;;;;;;;;;;13.67;64.35;101672.44;5064577;28;20013;-76
2022/06/04 03:54:09;;;;;;;;;;;;;;;13.65;64.92;101667.16;5066307;28;19916;-76
2022/06/04 03:56:34;;;;;;;;;;;;;;;13.66;64.86;101668.91;5063395;28;20372;-76
2022/06/04 03:58:59;;;;;;;;;;;;;;;13.64;64.96;101668.97;5069689;28;19912;-76
2022/06/04 04:01:26;;;;;;;;;;;;;;;13.64;64.69;101674.38;5064321;28;19912;-76
2022/06/04 04:03:51;;;;;;;;;;;;;;;13.65;64.79;101677.97;5057388;28;20307;-76
2022/06/04 04:06:22;;;;;;;;;;;;;;;13.66;64.68;101681.50;5063670;28;19912;-76
2022/06/04 04:08:48;;;;;;;;;;;;;;;13.66;65.15;101676.13;5059238;28;19912;-76
2022/06/04 04:11:14;;;;;;;;;;;;;;;13.62;65.50;101675.50;5064201;28;19931;-76
2022/06/04 04:13:39;;;;;;;;;;;;;;;13.61;65.35;101685.41;5069138;28;19912;-76
2022/06/04 04:16:05;;;;;;;;;;;;;;;13.59;65.84;101683.81;5056012;28;19971;-76
2022/06/04 04:18:30;;;;;;;;;;;;;;;13.58;65.82;101693.75;5055809;28;20314;-76
2022/06/04 04:20:55;;;;;;;;;;;;;;;13.57;65.41;101692.03;5080286;28;19970;-76
2022/06/04 04:23:21;;;;;;;;;;;;;;;13.57;65.79;101691.16;5062293;28;20257;-76
2022/06/04 04:25:46;;;;;;;;;;;;;;;13.56;65.88;101687.59;5054609;28;19917;-76
2022/06/04 04:28:11;;;;;;;;;;;;;;;13.58;65.76;101699.13;5053879;28;19920;-76
2022/06/04 04:30:36;;;;;;;;;;;;;;;13.55;66.24;101707.47;5065564;28;20066;-76
2022/06/04 04:33:02;;;;;;;;;;;;;;;13.56;65.98;101708.34;5062319;28;19912;-76
2022/06/04 04:35:29;;;;;;;;;;;;;;;13.55;66.75;101702.06;5065386;28;19927;-76
2022/06/04 04:37:55;;;;;;;;;;;;;;;13.54;66.73;101715.69;5061964;28;19967;-76
2022/06/04 04:40:21;;;;;;;;;;;;;;;13.51;66.54;101711.38;5055241;28;20437;-76
2022/06/04 04:42:49;;;;;;;;;;;;;;;13.50;66.88;101708.78;5069254;28;20363;-76
2022/06/04 04:45:16;;;;;;;;;;;;;;;13.49;66.96;101724.13;5068887;28;19912;-76
2022/06/04 04:47:43;;;;;;;;;;;;;;;13.52;67.14;101723.06;5066165;28;19919;-76
2022/06/04 04:50:11;;;;;;;;;;;;;;;13.52;66.59;101723.91;5060418;28;20573;-76
2022/06/04 04:52:36;;;;;;;;;;;;;;;13.52;67.04;101729.31;5087120;28;20395;-76
2022/06/04 04:55:02;;;;;;;;;;;;;;;13.53;67.51;101727.44;5053916;28;19916;-76
2022/06/04 04:57:27;;;;;;;;;;;;;;;13.54;67.17;101735.44;5062252;28;20011;-76
2022/06/04 04:59:52;;;;;;;;;;;;;;;13.54;67.40;101734.59;5052382;28;19939;-76
2022/06/04 05:02:17;;;;;;;;;;;;;;;13.53;67.43;101728.34;5058401;28;19916;-76
2022/06/04 05:04:42;;;;;;;;;;;;;;;13.53;67.69;101724.75;5068327;28;19947;-76
2022/06/04 05:07:11;;;;;;;;;;;;;;;13.53;68.00;101735.56;5068531;28;20283;-76
2022/06/04 05:09:37;;;;;;;;;;;;;;;13.55;67.84;101734.47;5063612;28;19918;-75
2022/06/04 05:12:03;;;;;;;;;;;;;;;13.56;67.71;101730.81;5064324;28;20011;-75
2022/06/04 05:14:28;;;;;;;;;;;;;;;13.59;68.49;101736.00;5055333;28;19912;-75
2022/06/04 05:16:53;;;;;;;;;;;;;;;13.60;68.04;101736.84;5051580;28;19965;-75
2022/06/04 05:19:18;;;;;;;;;;;;;;;13.61;67.81;101736.72;5092252;28;19919;-75
2022/06/04 05:21:48;;;;;;;;;;;;;;;13.62;68.36;101737.63;5059220;28;19912;-75
2022/06/04 05:24:15;;;;;;;;;;;;;;;13.62;68.75;101741.16;5066270;28;19916;-75
2022/06/04 05:26:40;;;;;;;;;;;;;;;13.63;68.47;101739.31;5066078;28;19912;-76
2022/06/04 05:29:05;;;;;;;;;;;;;;;13.66;68.31;101741.81;5061249;28;19916;-76
2022/06/04 05:31:30;;;;;;;;;;;;;;;13.68;68.60;101747.97;5069830;28;19912;-76
2022/06/04 05:33:57;;;;;;;;;;;;;;;13.70;68.43;101747.84;5060386;28;19914;-76
2022/06/04 05:36:22;;;;;;;;;;;;;;;13.72;68.56;101746.78;5067498;28;19920;-76
2022/06/04 05:38:47;;;;;;;;;;;;;;;13.75;68.69;101748.41;5063025;28;19913;-76
2022/06/04 05:41:16;;;;;;;;;;;;;;;13.77;68.52;101744.59;5074506;28;20027;-76
2022/06/04 05:43:41;;;;;;;;;;;;;;;13.80;69.05;101754.31;5058261;28;20261;-76
2022/06/04 05:46:08;;;;;;;;;;;;;;;13.84;68.66;101758.53;5069028;28;19924;-76
2022/06/04 05:48:35;;;;;;;;;;;;;;;13.86;68.76;101763.81;5063175;28;19920;-76
2022/06/04 05:51:00;;;;;;;;;;;;;;;13.89;68.87;101761.75;5060184;28;20342;-76
2022/06/04 05:53:26;;;;;;;;;;;;;;;13.90;68.66;101768.03;5066113;28;19919;-76
2022/06/04 05:55:51;;;;;;;;;;;;;;;13.90;68.39;101768.03;5058050;28;19924;-76
2022/06/04 05:58:17;;;;;;;;;;;;;;;13.91;69.32;101764.34;5054168;28;19919;-76
2022/06/04 06:00:42;;;;;;;;;;;;;;;13.92;68.48;101764.22;5063123;28;19978;-76
2022/06/04 06:03:08;;;;;;;;;;;;;;;13.94;68.90;101765.00;5057593;28;19991;-76
2022/06/04 06:05:33;;;;;;;;;;;;;;;13.99;69.06;101775.47;5053880;28;19967;-76
2022/06/04 06:07:58;;;;;;;;;;;;;;;14.01;69.29;101768.09;5056746;28;19953;-75
2022/06/04 06:10:24;;;;;;;;;;;;;;;14.05;68.98;101768.75;5054176;28;20364;-75
2022/06/04 06:12:49;;;;;;;;;;;;;;;14.07;69.02;101772.19;5060239;28;19928;-75
2022/06/04 06:15:14;;;;;;;;;;;;;;;14.09;69.31;101767.56;5051503;28;19912;-75
2022/06/04 06:17:40;;;;;;;;;;;;;;;14.12;69.08;101764.63;5053439;28;19916;-75
2022/06/04 06:20:06;;;;;;;;;;;;;;;14.14;69.25;101758.13;5061892;28;20383;-75
2022/06/04 06:22:31;;;;;;;;;;;;;;;14.19;68.81;101757.78;5062662;28;19916;-75
2022/06/04 06:24:57;;;;;;;;;;;;;;;14.23;69.05;101761.09;5059304;28;20426;-75
2022/06/04 06:27:23;;;;;;;;;;;;;;;14.27;69.18;101768.88;5055889;28;19917;-76
2022/06/04 06:29:48;;;;;;;;;;;;;;;14.29;68.85;101766.94;5053697;28;19912;-76
2022/06/04 06:32:13;;;;;;;;;;;;;;;14.31;68.68;101769.53;5074222;28;19912;-76
2022/06/04 06:34:38;;;;;;;;;;;;;;;14.37;68.99;101776.31;5063346;28;19921;-76
2022/06/04 06:37:04;;;;;;;;;;;;;;;14.40;69.28;101774.25;5068623;28;19978;-76
2022/06/04 06:39:29;;;;;;;;;;;;;;;14.43;69.57;101781.28;5060118;28;19913;-76
2022/06/04 06:41:54;;;;;;;;;;;;;;;14.47;68.72;101782.78;5056973;28;19982;-76
2022/06/04 06:44:21;;;;;;;;;;;;;;;14.54;68.88;101794.84;5066569;28;19913;-76
2022/06/04 06:46:47;;;;;;;;;;;;;;;14.59;68.73;101792.66;5069025;28;19928;-76
2022/06/04 06:49:17;;;;;;;;;;;;;;;14.64;69.43;101795.03;5064364;28;20011;-76
2022/06/04 06:51:47;;;;;;;;;;;;;;;14.68;69.03;101796.53;5067384;28;19985;-76
2022/06/04 06:54:14;;;;;;;;;;;;;;;14.72;68.89;101794.47;5063220;28;20394;-76
2022/06/04 06:56:40;;;;;;;;;;;;;;;14.75;69.14;101794.25;5061483;28;19923;-76
2022/06/04 06:59:05;;;;;;;;;;;;;;;14.75;68.59;101795.09;5054052;28;19913;-76
2022/06/04 07:01:31;;;;;;;;;;;;;;;14.77;68.05;101800.38;5056974;28;19936;-76
2022/06/04 07:03:56;;;;;;;;;;;;;;;14.79;68.39;101787.63;5056923;28;19912;-76
2022/06/04 07:06:28;;;;;;;;;;;;;;;14.80;67.78;101797.44;5054759;28;19928;-77
2022/06/04 07:08:53;;;;;;;;;;;;;;;14.82;67.98;101790.09;5069620;28;19964;-77
2022/06/04 07:11:18;;;;;;;;;;;;;;;14.82;68.21;101793.66;5066467;28;19995;-76
2022/06/04 07:13:44;;;;;;;;;;;;;;;14.81;68.35;101791.06;5063969;28;20346;-76
2022/06/04 07:16:09;;;;;;;;;;;;;;;14.83;67.80;101797.22;5058593;28;19921;-77
2022/06/04 07:18:34;;;;;;;;;;;;;;;14.84;67.80;101791.69;5058766;28;20367;-76
2022/06/04 07:20:59;;;;;;;;;;;;;;;14.86;68.31;101805.09;5080003;28;19912;-76
2022/06/04 07:23:25;;;;;;;;;;;;;;;14.88;68.14;101803.16;5067382;28;19920;-76
2022/06/04 07:25:50;;;;;;;;;;;;;;;14.89;67.45;101796.78;5062510;28;20023;-76
2022/06/04 07:28:15;;;;;;;;;;;;;;;14.89;67.60;101796.78;5071895;28;19913;-76
2022/06/04 07:30:41;;;;;;;;;;;;;;;14.92;67.80;101807.34;5071427;28;19970;-76
2022/06/04 07:33:06;;;;;;;;;;;;;;;14.93;67.96;101803.66;5065336;28;20264;-76
2022/06/04 07:35:31;;;;;;;;;;;;;;;14.95;67.87;101815.25;5058936;28;19912;-76
2022/06/04 07:37:57;;;;;;;;;;;;;;;14.95;67.76;101815.25;5061470;28;20265;-76
2022/06/04 07:40:22;;;;;;;;;;;;;;;14.98;67.75;101822.28;5068866;28;20058;-76
2022/06/04 07:42:47;;;;;;;;;;;;;;;14.96;68.19;101819.66;5082097;28;19970;-76
2022/06/04 07:45:12;;;;;;;;;;;;;;;14.98;67.47;101817.72;5066830;28;20023;-76
2022/06/04 07:47:40;;;;;;;;;;;;;;;14.99;67.39;101816.75;5069425;28;19951;-76
2022/06/04 07:50:06;;;;;;;;;;;;;;;14.98;67.83;101812.28;5058607;28;20025;-76
2022/06/04 07:52:31;;;;;;;;;;;;;;;14.99;67.48;101819.44;5065043;28;19947;-76
2022/06/04 07:54:56;;;;;;;;;;;;;;;15.02;67.98;101813.78;5068217;28;19912;-76
2022/06/04 07:57:21;;;;;;;;;;;;;;;15.06;67.63;101813.53;5064485;28;20368;-76
2022/06/04 07:59:48;;;;;;;;;;;;;;;15.08;67.53;101811.56;5070611;28;19920;-76
2022/06/04 08:02:14;;;;;;;;;;;;;;;15.12;67.82;101813.06;5072712;28;19947;-76
2022/06/04 08:18:06;;;;;;;21.70;8.35;;;;;;;15.08;69.32;101808.88;5106815;27;20408;-73
2022/06/04 08:20:31;;;;;;;21.60;9.65;;;;;;;15.15;69.09;101808.28;5075558;28;20040;-73
2022/06/04 08:22:56;;;;;;;20.05;8.48;;;;;;;15.18;67.90;101810.75;5089251;28;20086;-74
2022/06/04 08:25:21;;;;;;;22.17;9.57;;;;;;;15.23;68.61;101802.28;5075084;28;20035;-73
2022/06/04 08:27:47;;;;;;;21.83;8.73;;;;;;;15.27;68.94;101800.19;5087150;28;20035;-73
2022/06/04 08:30:13;;;;;;;21.63;9.57;;;;;;;15.24;67.21;101795.00;5095008;28;20024;-73
2022/06/04 08:32:38;;;;;;;24.00;9.65;;;;;;;15.23;68.60;101783.31;5100721;28;20089;-73
2022/06/04 08:35:04;;;;;;;19.73;9.15;;;;;;;15.32;69.36;101792.56;5089642;28;20024;-73
2022/06/04 08:37:29;;;;;;;26.42;10.98;;;;;;;15.33;68.59;101800.56;5083935;28;20133;-73
2022/06/04 08:39:55;;;;;;;23.02;10.25;;;;;;;15.36;67.86;101802.19;5085118;28;20039;-73
2022/06/04 08:42:35;;;;;;;22.08;9.43;;;;;;;15.41;68.68;101801.81;5073501;28;20032;-74
2022/06/04 08:45:01;;;;;;;22.35;9.18;;;;;;;15.46;67.62;101800.47;5084757;28;20523;-73
2022/06/04 08:47:37;;;;;;;22.33;9.65;;;;;;;15.51;67.13;101802.81;5085252;28;20051;-73
2022/06/04 08:50:15;;;;;;;20.98;9.43;;;;;;;15.59;66.84;101807.63;5071362;28;20028;-73
2022/06/04 08:52:44;;;;;;;22.70;10.20;;;;;;;15.68;66.66;101813.19;5070921;28;20514;-73
2022/06/04 08:58:39;;;;;;;21.88;9.82;;;;;;;15.97;67.63;101820.81;5087137;28;20441;-73
2022/06/04 09:01:13;;;;;;;22.45;9.80;;;;;;;16.09;68.38;101818.97;5081894;28;20117;-73
2022/06/04 09:04:06;;;;;;;24.13;9.52;;;;;;;16.15;66.03;101818.50;5073097;28;20428;-73
2022/06/04 09:06:48;;;;;;;22.83;9.13;;;;;;;16.24;67.07;101815.03;5067198;28;20392;-74
2022/06/04 09:09:24;;;;;;;21.25;9.48;;;;;;;16.31;65.81;101809.97;5076438;28;20399;-73
2022/06/04 09:11:58;;;;;;;21.65;9.18;;;;;;;16.42;65.86;101811.78;5086231;28;20361;-73
2022/06/04 09:14:32;;;;;;;21.30;8.52;;;;;;;16.57;67.03;101815.06;5086082;28;20024;-73
2022/06/04 09:17:02;;;;;;;22.42;9.00;;;;;;;16.67;66.44;101802.44;5085878;28;20107;-73
2022/06/04 09:19:34;;;;;;;23.77;10.20;;;;;;;16.80;65.77;101810.41;5073356;28;20252;-74
2022/06/04 09:22:01;;;;;;;24.85;10.10;;;;;;;16.77;63.54;101814.25;5073697;28;20483;-73
2022/06/04 09:24:27;;;;;;;22.42;10.40;;;;;;;16.86;64.17;101812.59;5073585;28;20045;-73
2022/06/04 09:27:11;;;;;;;21.33;9.35;;;;;;;16.87;64.49;101808.94;5073701;28;20074;-73
2022/06/04 09:29:52;;;;;;;21.33;9.45;;;;;;;16.88;64.19;101816.09;5073343;28;20025;-73
2022/06/04 09:32:44;;;;;;;21.35;10.50;;;;;;;16.92;64.26;101813.97;5077900;28;20037;-73
2022/06/04 09:35:11;;;;;;;25.30;10.63;;;;;;;16.97;66.13;101810.88;5052365;28;20029;-73
2022/06/04 09:37:45;;;;;;;21.08;10.15;;;;;;;17.07;67.74;101815.41;5065013;28;20072;-74
2022/06/04 09:40:30;;;;;;;24.15;10.30;;;;;;;17.15;66.03;101819.31;5072607;28;20056;-74
2022/06/04 09:43:14;;;;;;;20.10;9.40;;;;;;;17.25;65.81;101817.53;5071861;28;20028;-74
2022/06/04 09:45:40;;;;;;;21.27;9.68;;;;;;;17.31;65.12;101822.41;5073154;28;20303;-75
2022/06/04 09:48:30;;;;;;;24.20;10.75;;;;;;;17.34;63.85;101822.16;5069575;28;20052;-74
2022/06/04 09:50:59;;;;;;;19.95;9.55;;;;;;;17.38;64.28;101829.03;5059587;28;20161;-75
2022/06/04 09:53:28;;;;;;;24.80;10.75;;;;;;;17.40;64.19;101827.03;5070362;28;20036;-74
2022/06/04 09:56:09;;;;;;;20.88;10.30;;;;;;;17.43;63.44;101826.78;5067647;28;20023;-74
2022/06/04 09:58:41;;;;;;;21.15;9.35;;;;;;;17.44;62.57;101817.63;5065908;28;20068;-76
2022/06/04 10:01:19;;;;;;;23.65;9.85;;;;;;;17.49;62.74;101824.53;5071454;28;20024;-74
2022/06/04 10:03:58;;;;;;;22.80;10.05;;;;;;;17.56;63.81;101823.00;5055526;28;20024;-74
2022/06/04 10:06:26;;;;;;;22.05;11.07;;;;;;;17.57;62.62;101835.56;5066795;28;20017;-76
2022/06/04 10:11:51;;;;;;;;;;;;;;;17.75;63.33;101835.84;5057154;28;20046;-75
2022/06/04 10:14:30;;;;;;;22.15;11.20;;;;;;;17.78;62.88;101833.69;5071177;28;19916;-77
2022/06/04 10:16:56;;;;;;;23.05;10.57;;;;;;;17.81;61.73;101836.13;5071409;28;20510;-75
2022/06/04 10:19:24;;;;;;;22.88;10.82;;;;;;;17.91;62.40;101829.94;5069111;28;20021;-75
2022/06/04 10:22:06;;;;;;;22.88;10.13;;;;;;;17.93;63.71;101831.50;5073117;28;20111;-75
2022/06/04 10:24:36;;;;;;;22.02;11.10;;;;;;;17.98;64.22;101833.84;5070866;28;20052;-75
2022/06/04 10:27:15;;;;;;;25.35;11.15;;;;;;;18.04;64.01;101829.69;5052888;28;20078;-75
2022/06/04 10:29:59;;;;;;;23.50;10.70;;;;;;;18.12;63.79;101835.28;5056153;28;20038;-75
2022/06/04 10:32:31;;;;;;;20.35;10.38;;;;;;;18.15;62.41;101829.56;5071134;28;20035;-76
2022/06/04 10:35:21;;;;;;;24.75;11.20;;;;;;;18.18;62.00;101834.75;5071448;28;20131;-77
2022/06/04 10:38:18;;;;;;;21.00;10.30;;;;;;;18.30;63.51;101827.31;5068069;28;20031;-78
2022/06/04 10:40:57;;;;;;;23.95;10.75;;;;;;;18.37;61.49;101836.66;5062078;28;20040;-76
2022/06/04 10:43:31;;;;;;;24.13;11.52;;;;;;;18.49;62.08;101835.56;5069268;28;20371;-76
2022/06/04 10:46:13;;;;;;;27.23;12.88;;;;;;;18.59;61.44;101834.69;5069539;28;20075;-76
2022/06/04 10:48:55;;;;;;;23.15;10.20;;;;;;;18.73;62.61;101833.41;5072740;28;20041;-76
2022/06/04 10:51:50;;;;;;;20.90;9.52;;;;;;;18.85;61.35;101835.84;5061604;28;20487;-76
2022/06/04 10:54:39;;;;;;;23.08;10.55;;;;;;;19.01;62.69;101835.31;5066173;28;20416;-76
2022/06/04 10:57:16;;;;;;;22.25;9.25;;;;;;;19.23;63.30;101830.59;5069808;28;20472;-76
2022/06/04 10:59:49;;;;;;;23.23;11.50;;;;;;;19.32;62.72;101839.75;5071176;28;20028;-76
2022/06/04 11:02:34;;;;;;;20.92;8.90;;;;;;;19.33;60.37;101830.56;5064789;28;20033;-76
2022/06/04 11:05:05;;;;;;;19.52;7.88;;;;;;;19.36;60.03;101827.56;5050611;28;20033;-76
2022/06/04 11:07:52;;;;;;;22.17;9.27;;;;;;;19.41;60.38;101830.69;5050904;28;20140;-76
2022/06/04 11:10:25;;;;;;;21.00;10.50;;;;;;;19.54;61.54;101838.56;5068479;28;20039;-75
2022/06/04 11:13:04;;;;;;;22.00;10.43;;;;;;;19.62;61.65;101837.81;5070624;28;20040;-76
2022/06/04 11:15:37;;;;;;;24.23;10.80;;;;;;;19.70;60.18;101840.66;5071702;28;20075;-76
2022/06/04 11:18:12;;;;;;;21.52;10.68;;;;;;;19.77;58.68;101840.94;5063923;28;20048;-76
2022/06/04 11:20:45;;;;;;;21.67;11.10;;;;;;;19.82;58.90;101847.69;5070491;28;20050;-76
2022/06/04 11:23:20;;;;;;;21.70;10.27;;;;;;;19.83;59.18;101845.84;5071288;28;20025;-76
2022/06/04 11:25:50;;;;;;;23.90;11.02;;;;;;;19.87;57.29;101842.66;5051477;28;20108;-76
2022/06/04 11:28:24;;;;;;;21.50;11.10;;;;;;;19.99;58.53;101839.75;5051446;28;20075;-76
2022/06/04 11:31:09;;;;;;;22.50;11.27;;;;;;;19.97;57.33;101836.28;5050036;28;20101;-76
2022/06/04 11:33:52;;;;;;;23.40;10.38;;;;;;;20.01;58.23;101838.56;5051719;28;20546;-76
2022/06/04 11:36:30;;;;;;;24.08;10.68;;;;;;;20.01;56.93;101833.09;5070540;28;20067;-76
2022/06/04 11:39:09;;;;;;;20.65;10.43;;;;;;;20.06;59.01;101832.66;5063158;28;20075;-76
2022/06/04 11:41:43;;;;;;;22.93;10.73;;;;;;;20.08;58.85;101825.19;5051049;28;20020;-76
2022/06/04 11:44:27;;;;;;;24.13;10.88;;;;;;;20.16;60.06;101824.41;5051206;28;20098;-76
2022/06/04 11:47:08;;;;;;;23.48;9.43;;;;;;;20.25;59.73;101812.59;5069657;28;20043;-75
2022/06/04 11:49:42;;;;;;;23.00;12.20;;;;;;;20.29;55.99;101808.53;5058620;28;20039;-76
2022/06/04 11:52:18;;;;;;;22.80;11.10;;;;;;;20.38;58.22;101812.22;5065193;28;20212;-76
2022/06/04 11:55:17;;;;;;;21.85;10.13;;;;;;;20.43;58.33;101807.16;5070642;28;20143;-80
2022/06/04 11:58:20;;;;;;;21.17;10.15;;;;;;;20.48;58.91;101813.00;5068419;28;20057;-79
2022/06/04 12:00:47;;;;;;;22.35;11.65;;;;;;;20.52;55.54;101802.66;5067951;28;20032;-79
2022/06/04 12:03:16;;;;;;;19.85;10.20;;;;;;;20.54;56.65;101801.50;5069580;28;20028;-78
2022/06/04 12:05:41;;;;;;;21.67;10.35;;;;;;;20.54;55.72;101790.56;5069439;28;20063;-79
2022/06/04 12:08:11;;;;;;;21.80;11.02;;;;;;;20.55;56.09;101786.81;5065661;28;20068;-79
2022/06/04 12:11:01;;;;;;;20.90;10.70;;;;;;;20.58;56.62;101791.94;5055426;28;20131;-79
2022/06/04 12:13:45;;;;;;;22.00;10.82;;;;;;;20.62;56.96;101783.47;5070081;28;20028;-77
2022/06/04 12:16:19;;;;;;;23.15;11.40;;;;;;;20.62;57.34;101780.75;5071021;28;20072;-80
2022/06/04 12:18:57;;;;;;;24.42;11.50;;;;;;;20.64;56.49;101775.97;5068804;28;20063;-80
2022/06/04 12:24:40;;;;;;;24.70;10.77;;;;;;;20.77;57.33;101774.56;5018606;28;20044;-79
2022/06/04 12:27:26;;;;;;;22.55;10.35;;;;;;;20.77;57.66;101769.09;5005012;28;20120;-79
2022/06/04 12:29:57;;;;;;;22.10;11.63;;;;;;;20.82;57.63;101763.19;5004136;28;20057;-79
2022/06/04 12:32:28;;;;;;;22.38;11.27;;;;;;;20.89;57.84;101772.44;5004230;28;20034;-79
2022/06/04 12:35:15;;;;;;;22.88;10.75;;;;;;;20.89;55.79;101763.41;5012650;28;20042;-79
2022/06/04 12:37:49;;;;;;;23.13;10.57;;;;;;;20.95;57.51;101760.03;5021570;28;20397;-80
2022/06/04 12:40:20;;;;;;;19.88;9.57;;;;;;;20.98;57.69;101765.19;5006413;28;20035;-79
2022/06/04 12:43:22;;;;;;;21.55;10.13;;;;;;;21.01;58.26;101769.47;5028699;28;20048;-79
2022/06/04 12:45:50;;;;;;;22.58;11.05;;;;;;;21.06;55.47;101773.44;5019370;28;20042;-78
2022/06/04 12:48:18;;;;;;;25.23;11.25;;;;;;;21.15;56.70;101782.56;5025166;28;20053;-79
2022/06/04 12:50:50;;;;;;;21.73;11.43;;;;;;;21.25;58.41;101774.28;5018012;28;20120;-79
2022/06/04 12:53:21;;;;;;;21.50;10.00;;;;;;;21.17;56.20;101785.16;5012378;28;20021;-78